Akson Serin — 3FAM6 — position and weather

sailwx.info

Track history (hours):
 
Tides and Currents Weather Stations Pressure Air Temp Water Temp Dewpoint Dewpoint Depression Visibility Wind Speed Wind Dir Waves Ship Positions

Akson Serin

Last reported at 2018-Jun-02 03:34 UTC. Time now 2018-Jun-22 08:55 UTC.
Position N 19°04' W 018°17'.
Warning: this ship's position is 20 days out of date.

Length 190 m; draft 10.2 m.

MMSI: 354912000.

Date/timePositionNaut miles runAvg speedWind from/ knotsBaromVisibWave heightAir tempDewpointWater temp
2018-Jun-02 03:34N 19°04' W 018°17'112.1
2018-Jun-02 03:29N 19°05' W 018°17'57411.7
2018-May-31 02:14N 27°44' W 013°50'411.9
2018-May-31 01:54N 27°47' W 013°47'2111.8
2018-May-31 00:07N 28°04' W 013°33'  
2018-May-28 18:29N 35°57' W 005°43'5 8.3
2018-May-28 17:50N 35°57' W 005°36'3 7.9
2018-May-28 17:30N 35°58' W 005°33'4 8.0
2018-May-28 17:00N 35°59' W 005°29'4 7.7
2018-May-28 16:30N 36°01' W 005°24'4 8.3
2018-May-28 16:00N 36°05' W 005°23'3 5.1
2018-May-28 15:30N 36°07' W 005°22'0 0.0
2018-May-28 05:50N 36°07' W 005°22'0 0.0
2018-May-28 05:23N 36°07' W 005°22'0 0.0
2018-May-28 04:59N 36°07' W 005°22'0 0.0
2018-May-28 04:23N 36°07' W 005°22'0 0.0
2018-May-28 03:59N 36°07' W 005°22'0 0.1
2018-May-28 03:29N 36°07' W 005°22'0 0.0
2018-May-28 02:59N 36°07' W 005°22'0 0.1
2018-May-28 02:29N 36°07' W 005°22'0 0.0
2018-May-28 01:59N 36°07' W 005°22'0 0.0
2018-May-28 01:29N 36°07' W 005°22'0 0.0
2018-May-28 00:59N 36°07' W 005°22'0 0.0
2018-May-28 00:14N 36°07' W 005°22'0 0.0
2018-May-27 23:26N 36°07' W 005°22'0 0.2
2018-May-27 22:01N 36°07' W 005°22'0 3.8
2018-May-27 22:00N 36°07' W 005°22'2 4.8
2018-May-27 21:30N 36°05' W 005°20'3 6.7
2018-May-27 21:00N 36°05' W 005°16'4 8.8
2018-May-27 20:30N 36°06' W 005°10'  
Track history (hours):
 
Tides and Currents Weather Stations Pressure Air Temp Water Temp Dewpoint Dewpoint Depression Visibility Wind Speed Wind Dir Waves Ship Positions

Akson Serin

Last reported at 2018-Jun-02 03:34 UTC. Time now 2018-Jun-22 08:55 UTC.
Position N 19°04' W 018°17'.
Warning: this ship's position is 20 days out of date.

Length 190 m; draft 10.2 m.

MMSI: 354912000.

Date/timePositionNaut miles runAvg speedWind from/ knotsBaromVisibWave heightAir tempDewpointWater temp
2018-Jun-02 03:34N 19°04' W 018°17'112.1
2018-Jun-02 03:29N 19°05' W 018°17'57411.7
2018-May-31 02:14N 27°44' W 013°50'411.9
2018-May-31 01:54N 27°47' W 013°47'2111.8
2018-May-31 00:07N 28°04' W 013°33'  
2018-May-28 18:29N 35°57' W 005°43'5 8.3
2018-May-28 17:50N 35°57' W 005°36'3 7.9
2018-May-28 17:30N 35°58' W 005°33'4 8.0
2018-May-28 17:00N 35°59' W 005°29'4 7.7
2018-May-28 16:30N 36°01' W 005°24'4 8.3
2018-May-28 16:00N 36°05' W 005°23'3 5.1
2018-May-28 15:30N 36°07' W 005°22'0 0.0
2018-May-28 05:50N 36°07' W 005°22'0 0.0
2018-May-28 05:23N 36°07' W 005°22'0 0.0
2018-May-28 04:59N 36°07' W 005°22'0 0.0
2018-May-28 04:23N 36°07' W 005°22'0 0.0
2018-May-28 03:59N 36°07' W 005°22'0 0.1
2018-May-28 03:29N 36°07' W 005°22'0 0.0
2018-May-28 02:59N 36°07' W 005°22'0 0.1
2018-May-28 02:29N 36°07' W 005°22'0 0.0
2018-May-28 01:59N 36°07' W 005°22'0 0.0
2018-May-28 01:29N 36°07' W 005°22'0 0.0
2018-May-28 00:59N 36°07' W 005°22'0 0.0
2018-May-28 00:14N 36°07' W 005°22'0 0.0
2018-May-27 23:26N 36°07' W 005°22'0 0.2
2018-May-27 22:01N 36°07' W 005°22'0 3.8
2018-May-27 22:00N 36°07' W 005°22'2 4.8
2018-May-27 21:30N 36°05' W 005°20'3 6.7
2018-May-27 21:00N 36°05' W 005°16'4 8.8
2018-May-27 20:30N 36°06' W 005°10'  

Dump ship's entire track history